createdAt,value
2019-06-15T00:01:22.053Z,2.17
2019-06-15T00:06:24.882Z,2.35
2019-06-15T00:11:27.727Z,2.10
2019-06-15T00:16:32.531Z,2.20
2019-06-15T00:21:35.208Z,2.13
2019-06-15T00:26:41.202Z,2.43
2019-06-15T00:31:43.907Z,1.80
2019-06-15T00:36:46.797Z,2.43
2019-06-15T00:41:50.016Z,2.00
2019-06-15T00:46:52.870Z,1.95
2019-06-15T00:51:55.639Z,1.97
2019-06-15T00:56:58.421Z,2.00
2019-06-15T01:02:02.165Z,2.25
2019-06-15T01:07:05.109Z,2.10
2019-06-15T01:12:08.034Z,2.10
2019-06-15T01:17:11.048Z,2.03
2019-06-15T01:22:13.848Z,2.00
2019-06-15T01:27:16.587Z,1.90
2019-06-15T01:32:19.303Z,2.27
2019-06-15T01:37:22.219Z,2.30
2019-06-15T01:42:24.999Z,1.75
2019-06-15T01:47:27.694Z,1.50
2019-06-15T01:52:30.587Z,1.80
2019-06-15T01:57:33.344Z,1.85
2019-06-15T02:02:36.051Z,1.80
2019-06-15T02:07:38.866Z,1.93
2019-06-15T02:12:41.587Z,2.10
2019-06-15T02:17:45.179Z,1.70
2019-06-15T02:22:48.020Z,1.77
2019-06-15T02:33:38.040Z,1.90
2019-06-15T02:44:41.008Z,2.00
2019-06-15T02:49:43.684Z,1.72
2019-06-15T02:54:46.445Z,1.80
2019-06-15T02:59:49.205Z,1.90
2019-06-15T03:04:52.066Z,1.98
2019-06-15T03:09:55.203Z,1.50
2019-06-15T03:14:58.034Z,2.22
2019-06-15T03:20:00.746Z,1.60
2019-06-15T03:25:04.067Z,2.20
2019-06-15T03:30:07.636Z,1.87
2019-06-15T03:35:10.560Z,1.62
2019-06-15T03:40:16.421Z,1.55
2019-06-15T03:45:19.187Z,1.40
2019-06-15T03:50:22.166Z,1.22
2019-06-15T03:55:24.936Z,1.17
2019-06-15T04:00:47.860Z,1.17
2019-06-15T04:05:50.507Z,1.22
2019-06-15T04:10:53.233Z,1.62
2019-06-15T04:15:55.891Z,1.70
2019-06-15T04:20:58.693Z,1.40
2019-06-15T04:26:01.472Z,1.20
2019-06-15T04:31:04.187Z,1.30
2019-06-15T04:36:06.804Z,1.62
2019-06-15T04:41:09.374Z,1.42
2019-06-15T04:46:12.122Z,1.52
2019-06-15T04:51:14.891Z,1.20
2019-06-15T04:56:18.764Z,1.40
2019-06-15T05:01:21.355Z,1.32
2019-06-15T05:06:24.109Z,1.32
2019-06-15T05:11:27.000Z,0.93
2019-06-15T05:16:29.697Z,1.30
2019-06-15T05:21:33.551Z,1.35
2019-06-15T05:26:36.280Z,1.25
2019-06-15T05:31:51.933Z,1.10
2019-06-15T05:36:54.651Z,1.20
2019-06-15T05:41:57.345Z,1.10
2019-06-15T05:47:05.728Z,1.45
2019-06-15T05:52:08.530Z,1.00
2019-06-15T05:57:21.145Z,1.57
2019-06-15T06:02:16.757Z,1.00
2019-06-15T06:07:20.234Z,1.10
2019-06-15T06:12:22.985Z,0.93
2019-06-15T06:17:25.813Z,0.82
2019-06-15T06:22:28.871Z,1.30
2019-06-15T06:27:36.387Z,1.10
2019-06-15T06:32:36.243Z,1.00
2019-06-15T06:37:40.590Z,1.00
2019-06-15T06:42:43.250Z,0.80
2019-06-15T06:47:46.009Z,1.20
2019-06-15T06:52:48.843Z,1.22
2019-06-15T06:57:54.837Z,1.42
2019-06-15T07:02:56.107Z,1.30
2019-06-15T07:08:04.925Z,1.05
2019-06-15T07:13:07.684Z,1.17
2019-06-15T07:18:10.351Z,0.82
2019-06-15T07:23:13.059Z,1.02
2019-06-15T07:28:15.812Z,0.90
2019-06-15T07:33:18.541Z,1.22
2019-06-15T07:38:21.194Z,1.00
2019-06-15T07:43:23.896Z,0.98
2019-06-15T07:48:26.597Z,0.90
2019-06-15T07:53:29.520Z,1.15
2019-06-15T07:58:32.268Z,0.90
2019-06-15T08:03:34.946Z,1.02
2019-06-15T08:08:37.830Z,0.98
2019-06-15T08:13:40.588Z,1.00
2019-06-15T08:18:43.194Z,0.90
2019-06-15T08:23:45.888Z,0.80
2019-06-15T08:28:48.605Z,0.90
2019-06-15T08:33:51.366Z,0.80
2019-06-15T08:38:54.039Z,0.98
2019-06-15T08:43:56.616Z,0.90
2019-06-15T08:49:00.611Z,1.20
2019-06-15T08:54:03.468Z,0.90
2019-06-15T08:59:06.161Z,0.90
2019-06-15T09:04:08.815Z,1.10
2019-06-15T09:09:11.563Z,1.05
2019-06-15T09:14:14.224Z,1.00
2019-06-15T09:19:17.004Z,0.90
2019-06-15T09:24:19.829Z,1.22
2019-06-15T09:29:22.542Z,1.20
2019-06-15T09:34:25.371Z,1.40
2019-06-15T09:39:28.342Z,1.25
2019-06-15T09:44:31.297Z,1.10
2019-06-15T09:49:34.355Z,1.52
2019-06-15T09:54:37.058Z,1.62
2019-06-15T09:59:39.675Z,1.42
2019-06-15T10:04:42.512Z,1.10
2019-06-15T10:09:46.337Z,1.20
2019-06-15T10:14:50.051Z,1.35
2019-06-15T10:19:52.816Z,1.10
2019-06-15T10:24:58.678Z,1.30
2019-06-15T10:30:01.632Z,1.10
2019-06-15T10:35:04.714Z,1.60
2019-06-15T10:40:08.804Z,1.20
2019-06-15T10:45:11.790Z,1.67
2019-06-15T10:50:14.967Z,1.47
2019-06-15T10:55:18.166Z,1.37
2019-06-15T11:00:21.472Z,1.37
2019-06-15T11:05:24.246Z,1.20
2019-06-15T11:10:54.064Z,1.45
2019-06-15T11:15:57.428Z,1.30
2019-06-15T11:21:00.501Z,1.30
2019-06-15T11:26:03.373Z,1.40
2019-06-15T11:31:06.107Z,1.50
2019-06-15T11:36:08.963Z,1.40
2019-06-15T11:41:11.772Z,1.10
2019-06-15T11:46:14.392Z,1.10
2019-06-15T11:51:17.000Z,1.30
2019-06-15T11:56:19.759Z,1.40
2019-06-15T12:01:22.360Z,1.15
2019-06-15T12:06:25.056Z,1.05
2019-06-15T12:11:27.864Z,1.10
2019-06-15T12:16:30.679Z,1.00
2019-06-15T12:21:33.463Z,1.45
2019-06-15T12:26:36.183Z,1.02
2019-06-15T12:31:38.842Z,1.32
2019-06-15T12:36:41.474Z,1.40
2019-06-15T12:41:44.553Z,1.20
2019-06-15T12:46:47.176Z,1.22
2019-06-15T12:51:49.772Z,1.27
2019-06-15T12:56:52.495Z,2.10
2019-06-15T13:01:56.540Z,1.52
2019-06-15T13:07:00.246Z,1.40
2019-06-15T13:12:03.445Z,1.65
2019-06-15T13:17:06.132Z,2.12
2019-06-15T13:22:08.847Z,1.47
2019-06-15T13:27:11.552Z,2.00
2019-06-15T13:32:15.123Z,1.77
2019-06-15T13:37:17.777Z,1.32
2019-06-15T13:42:20.876Z,1.77
2019-06-15T13:47:23.582Z,2.25
2019-06-15T13:52:26.317Z,1.12
2019-06-15T13:57:30.124Z,1.35
2019-06-15T14:02:32.930Z,1.75
2019-06-15T14:07:35.868Z,1.00
2019-06-15T14:12:38.639Z,0.93
2019-06-15T14:17:41.360Z,0.90
2019-06-15T14:22:44.054Z,1.07
2019-06-15T14:27:46.753Z,1.00
2019-06-15T14:32:49.469Z,0.90
2019-06-15T14:37:52.255Z,1.07
2019-06-15T14:42:55.067Z,1.27
2019-06-15T14:47:58.270Z,1.45
2019-06-15T14:53:01.104Z,1.20
2019-06-15T14:58:06.205Z,1.22
2019-06-15T15:03:08.816Z,1.40
2019-06-15T15:08:11.714Z,1.20
2019-06-15T15:13:14.468Z,1.20
2019-06-15T15:18:17.295Z,1.30
2019-06-15T15:23:20.216Z,1.50
2019-06-15T15:28:23.187Z,1.52
2019-06-15T15:33:26.030Z,1.20
2019-06-15T15:38:28.884Z,1.72
2019-06-15T15:43:31.655Z,1.10
2019-06-15T15:48:36.361Z,1.15
2019-06-15T15:53:39.172Z,1.57
2019-06-15T15:58:41.875Z,1.05
2019-06-15T16:03:47.249Z,1.32
2019-06-15T16:08:49.367Z,1.57
2019-06-15T16:14:12.190Z,1.57
2019-06-15T16:19:28.864Z,1.55
2019-06-15T16:24:31.814Z,1.50
2019-06-15T16:29:46.995Z,1.65
2019-06-15T16:34:50.023Z,1.55
2019-06-15T16:39:54.068Z,1.90
2019-06-15T16:44:57.652Z,2.77
2019-06-15T16:50:01.502Z,2.72
2019-06-15T16:55:06.572Z,1.85
2019-06-15T17:00:17.981Z,1.92
2019-06-15T17:05:20.790Z,1.87
2019-06-15T17:10:36.297Z,1.77
2019-06-15T17:15:39.183Z,1.90
2019-06-15T17:20:51.339Z,1.55
2019-06-15T17:25:54.104Z,2.05
2019-06-15T17:31:00.541Z,1.92
2019-06-15T17:36:03.559Z,1.90
2019-06-15T17:41:07.020Z,1.80
2019-06-15T17:46:09.834Z,2.05
2019-06-15T17:51:16.086Z,2.20
2019-06-15T17:56:18.800Z,1.90
2019-06-15T18:01:21.564Z,2.30
2019-06-15T18:06:26.683Z,2.27
2019-06-15T18:11:29.092Z,2.00
2019-06-15T18:16:31.888Z,2.10
2019-06-15T18:21:40.287Z,2.55
2019-06-15T18:26:39.269Z,2.47
2019-06-15T18:31:42.289Z,2.40
2019-06-15T18:36:45.159Z,2.35
2019-06-15T18:41:48.817Z,2.08
2019-06-15T18:46:51.633Z,2.83
2019-06-15T18:51:56.588Z,2.20
2019-06-15T18:56:58.885Z,2.30
2019-06-15T19:02:01.638Z,2.00
2019-06-15T19:07:06.622Z,2.33
2019-06-15T19:12:10.052Z,2.15
2019-06-15T19:17:16.496Z,2.20
2019-06-15T19:22:19.481Z,2.30
2019-06-15T19:27:25.945Z,3.30
2019-06-15T19:32:28.981Z,2.45
2019-06-15T19:37:34.108Z,2.37
2019-06-15T19:42:37.783Z,2.47
2019-06-15T19:47:40.964Z,2.15
2019-06-15T19:52:46.005Z,2.15
2019-06-15T19:57:48.713Z,2.02
2019-06-15T20:02:57.144Z,1.95
2019-06-15T20:07:59.084Z,2.22
2019-06-15T20:13:02.042Z,2.37
2019-06-15T20:18:06.883Z,2.27
2019-06-15T20:23:09.530Z,2.30
2019-06-15T20:28:12.502Z,2.00
2019-06-15T20:33:16.641Z,1.95
2019-06-15T20:38:19.640Z,1.87
2019-06-15T20:43:27.088Z,1.60
2019-06-15T20:48:29.323Z,1.60
2019-06-15T20:53:32.611Z,1.82
2019-06-15T20:58:37.283Z,1.87
2019-06-15T21:03:43.039Z,1.82
2019-06-15T21:08:46.794Z,1.65
2019-06-15T21:13:49.324Z,1.35
2019-06-15T21:18:52.100Z,1.25
2019-06-15T21:23:56.986Z,1.32
2019-06-15T21:28:59.659Z,1.50
2019-06-15T21:34:02.445Z,1.50
2019-06-15T21:39:06.906Z,1.52
2019-06-15T21:44:10.117Z,1.62
2019-06-15T21:49:12.912Z,1.85
2019-06-15T21:54:15.907Z,1.62
2019-06-15T21:59:18.569Z,1.67
2019-06-15T22:04:21.313Z,1.40
2019-06-15T22:09:26.365Z,1.30
2019-06-15T22:14:28.570Z,1.17
2019-06-15T22:19:31.375Z,1.85
2019-06-15T22:24:36.137Z,1.37
2019-06-15T22:29:38.583Z,1.62
2019-06-15T22:34:41.324Z,1.47
2019-06-15T22:39:46.532Z,1.37
2019-06-15T22:44:48.808Z,1.52
2019-06-15T22:49:51.433Z,1.00
2019-06-15T22:54:56.740Z,1.20
2019-06-15T22:59:59.020Z,1.05
2019-06-15T23:05:01.946Z,1.35
2019-06-15T23:10:10.443Z,1.77
2019-06-15T23:15:13.833Z,1.50
2019-06-15T23:20:26.834Z,1.27
2019-06-15T23:25:29.459Z,1.40
2019-06-15T23:30:32.195Z,1.20
2019-06-15T23:35:41.800Z,1.12
2019-06-15T23:40:46.716Z,1.40
2019-06-15T23:45:49.262Z,1.30
2019-06-15T23:50:51.953Z,1.20
2019-06-15T23:55:56.844Z,1.27
